CST,Max TemperatureF,Mean TemperatureF,Min TemperatureF,Max Dew PointF,MeanDew PointF,Min DewpointF,Max Humidity, Mean Humidity, Min Humidity, Max Sea Level PressureIn, Mean Sea Level PressureIn, Min Sea Level PressureIn, Max VisibilityMiles, Mean VisibilityMiles, Min VisibilityMiles, Max Wind SpeedMPH, Mean Wind SpeedMPH, Max Gust SpeedMPH,PrecipitationIn, CloudCover, Events, WindDirDegrees
2013-12-1,56,41,26,40,32,25,100,86,51,30.14,30.04,29.89,10,6,0,6,1,,0.00,2,Fog,197
2013-12-2,50,41,32,48,40,30,100,94,82,29.89,29.75,29.65,10,5,0,14,7,,0.00,6,Fog,196
2013-12-3,63,50,37,49,44,37,100,89,57,29.64,29.61,29.54,10,4,0,16,10,,0.00,4,Fog,193
2013-12-4,51,39,25,50,40,18,100,89,73,30.02,29.66,29.53,10,7,2,17,9,22,0.00,7,,244
2013-12-5,25,22,18,16,9,6,73,60,54,30.39,30.27,30.06,10,10,10,17,13,24,0.00,7,,342
2013-12-6,18,14,9,7,2,-2,66,56,42,30.69,30.51,30.34,10,10,9,16,13,,0.00,7,Snow,359
2013-12-7,22,14,5,5,2,0,80,61,40,30.77,30.64,30.43,10,10,10,12,8,,0.00,2,,48
2013-12-8,25,22,19,23,17,5,100,81,52,30.41,30.13,29.99,10,7,2,10,7,,0.00,7,Snow,199
2013-12-9,21,16,10,18,10,4,86,75,64,30.41,30.33,30.15,10,10,6,13,8,,0.00,6,Snow,295
2013-12-10,36,23,10,15,9,3,78,60,38,30.38,30.32,30.27,10,10,10,14,10,,0.00,0,,218
2013-12-11,27,18,10,18,8,0,79,60,31,30.69,30.56,30.29,10,10,10,17,10,23,0.00,1,,345
2013-12-12,44,26,8,23,12,1,76,58,27,30.64,30.44,30.23,10,10,10,18,10,21,0.00,0,,209
2013-12-13,35,29,23,34,30,18,100,88,64,30.20,29.98,29.88,10,7,3,14,10,,1.21,7,Rain-Snow,172
2013-12-14,32,27,21,32,25,17,100,89,80,30.25,30.08,29.86,10,6,1,20,9,28,0.04,7,Snow,331
2013-12-15,44,31,18,33,25,15,88,78,63,30.25,30.12,30.00,10,10,9,14,8,20,0.00,2,,220
2013-12-16,55,42,28,34,29,26,94,74,43,30.18,30.07,29.97,10,9,3,13,8,,0.00,1,,274
2013-12-17,47,34,22,31,24,19,91,69,45,30.32,30.26,30.18,10,10,6,16,6,20,0.00,0,,273
2013-12-18,59,43,27,38,30,21,77,61,44,30.25,30.02,29.84,10,10,10,25,12,31,0.00,2,,196
2013-12-19,58,52,45,49,45,37,82,76,67,29.83,29.76,29.69,10,10,10,23,12,29,0.00,6,,188
2013-12-20,54,39,24,50,30,21,95,89,83,29.95,29.84,29.66,10,7,1,17,9,23,0.00,8,Rain,310
2013-12-21,30,27,24,28,25,21,94,91,86,29.87,29.79,29.55,8,4,2,10,7,,0.30,8,Rain-Snow,13
2013-12-22,28,22,14,27,21,11,94,87,80,30.41,30.05,29.68,10,9,4,0,0,,0.02,7,Snow,-1
2013-12-23,14,9,4,10,6,-1,85,78,73,30.68,30.58,30.42,10,10,3,12,3,,0.00,5,Snow,321
2013-12-24,27,14,3,25,14,-1,93,83,73,30.66,30.44,30.27,10,10,10,12,4,18,0.00,4,,171
2013-12-25,34,30,26,31,27,23,94,91,86,30.38,30.31,30.25,10,9,5,12,7,,0.00,5,,233
2013-12-26,44,32,20,33,27,19,92,81,60,30.37,30.32,30.22,10,10,10,23,9,,0.00,0,,214
2013-12-27,50,37,24,37,30,24,100,82,57,30.38,30.31,30.23,10,9,5,13,8,,0.00,0,,208
2013-12-28,50,40,31,35,30,27,85,69,48,30.22,30.06,29.92,10,10,10,21,12,,0.00,1,,203
2013-12-29,39,25,10,30,13,0,84,68,50,30.38,30.20,29.91,10,10,10,20,16,29,0.00,5,Snow,330
2013-12-30,27,18,8,14,6,1,77,58,35,30.37,30.31,30.22,10,10,10,13,6,,0.00,3,,228
2013-12-31,48,32,16,28,21,13,86,64,43,30.37,30.24,30.12,10,10,10,24,9,28,0.00,0,,214